createdAt,value
2022-10-05T00:00:56.475Z,57.54
2022-10-05T00:03:41.476Z,57.62
2022-10-05T00:06:13.497Z,57.70
2022-10-05T00:08:42.167Z,57.61
2022-10-05T00:11:13.727Z,57.62
2022-10-05T00:13:42.533Z,57.56
2022-10-05T00:16:21.701Z,57.56
2022-10-05T00:18:53.326Z,57.61
2022-10-05T00:21:23.757Z,57.47
2022-10-05T00:23:53.016Z,57.55
2022-10-05T00:26:26.607Z,57.49
2022-10-05T00:28:55.617Z,57.62
2022-10-05T00:31:26.914Z,57.45
2022-10-05T00:33:56.008Z,57.38
2022-10-05T00:36:26.480Z,57.47
2022-10-05T00:38:55.367Z,57.34
2022-10-05T00:41:48.192Z,57.34
2022-10-05T00:44:19.969Z,57.34
2022-10-05T00:46:56.167Z,57.26
2022-10-05T00:49:50.896Z,56.99
2022-10-05T00:52:47.087Z,56.98
2022-10-05T00:55:33.916Z,56.90
2022-10-05T00:58:31.867Z,57.05
2022-10-05T01:01:10.951Z,56.83
2022-10-05T01:03:52.176Z,56.76
2022-10-05T01:06:48.420Z,56.81
2022-10-05T01:09:37.909Z,56.82
2022-10-05T01:12:34.326Z,56.74
2022-10-05T01:15:21.399Z,56.59
2022-10-05T01:18:20.397Z,56.50
2022-10-05T01:20:58.747Z,56.22
2022-10-05T01:23:50.355Z,55.92
2022-10-05T01:26:40.679Z,55.91
2022-10-05T01:29:45.718Z,55.72
2022-10-05T01:32:21.288Z,55.82
2022-10-05T01:35:10.856Z,55.66
2022-10-05T01:37:55.991Z,55.52
2022-10-05T01:40:35.469Z,55.61
2022-10-05T01:43:05.092Z,55.67
2022-10-05T01:45:50.290Z,55.50
2022-10-05T01:48:32.723Z,55.30
2022-10-05T01:51:15.889Z,55.35
2022-10-05T01:54:01.567Z,55.27
2022-10-05T01:56:56.210Z,55.44
2022-10-05T01:59:32.518Z,55.51
2022-10-05T02:02:04.989Z,55.29
2022-10-05T02:05:01.044Z,55.43
2022-10-05T02:07:40.918Z,55.33
2022-10-05T02:10:23.265Z,55.43
2022-10-05T02:12:54.857Z,55.46
2022-10-05T02:15:27.955Z,55.57
2022-10-05T02:18:07.608Z,55.56
2022-10-05T02:20:36.970Z,55.48
2022-10-05T02:23:23.978Z,55.65
2022-10-05T02:25:53.725Z,55.58
2022-10-05T02:28:50.135Z,55.65
2022-10-05T02:31:28.245Z,55.62
2022-10-05T02:34:29.339Z,55.69
2022-10-05T02:37:31.282Z,55.58
2022-10-05T02:40:38.598Z,55.64
2022-10-05T02:43:30.511Z,55.76
2022-10-05T02:46:03.116Z,55.71
2022-10-05T02:48:42.137Z,55.73
2022-10-05T02:51:14.858Z,55.54
2022-10-05T02:53:58.029Z,55.63
2022-10-05T02:56:30.238Z,55.46
2022-10-05T02:59:08.350Z,55.42
2022-10-05T03:01:41.765Z,55.34
2022-10-05T03:04:33.251Z,55.22
2022-10-05T03:07:23.339Z,55.13
2022-10-05T03:10:09.787Z,54.99
2022-10-05T03:12:50.487Z,55.00
2022-10-05T03:15:27.759Z,54.96
2022-10-05T03:18:30.775Z,54.78
2022-10-05T03:21:29.889Z,54.78
2022-10-05T03:24:01.691Z,54.89
2022-10-05T03:26:35.013Z,54.85
2022-10-05T03:29:04.919Z,54.72
2022-10-05T03:32:06.268Z,54.81
2022-10-05T03:34:40.272Z,54.88
2022-10-05T03:37:15.808Z,54.77
2022-10-05T03:40:00.800Z,54.78
2022-10-05T03:42:50.830Z,54.74
2022-10-05T03:45:44.458Z,54.77
2022-10-05T03:48:26.871Z,54.82
2022-10-05T03:51:01.080Z,54.85
2022-10-05T03:53:42.768Z,54.81
2022-10-05T03:56:25.354Z,55.20
2022-10-05T03:58:58.816Z,55.14
2022-10-05T04:01:39.375Z,55.26
2022-10-05T04:04:10.218Z,55.01
2022-10-05T04:06:42.757Z,55.30
2022-10-05T04:09:38.042Z,55.43
2022-10-05T04:12:23.900Z,55.38
2022-10-05T04:15:19.235Z,55.38
2022-10-05T04:17:52.479Z,55.46
2022-10-05T04:20:43.650Z,55.33
2022-10-05T04:23:26.456Z,55.50
2022-10-05T04:25:59.583Z,55.39
2022-10-05T04:28:32.160Z,55.46
2022-10-05T04:31:04.323Z,55.63
2022-10-05T04:33:33.849Z,55.64
2022-10-05T04:36:31.000Z,55.70
2022-10-05T04:39:06.317Z,55.72
2022-10-05T04:42:09.353Z,55.80
2022-10-05T04:45:23.560Z,55.77
2022-10-05T04:48:18.849Z,55.70
2022-10-05T04:51:06.843Z,55.70
2022-10-05T04:54:00.742Z,55.69
2022-10-05T04:57:09.319Z,55.53
2022-10-05T05:00:03.312Z,55.81
2022-10-05T05:02:36.907Z,55.85
2022-10-05T05:05:27.579Z,55.72
2022-10-05T05:08:24.752Z,55.95
2022-10-05T05:10:59.583Z,56.13
2022-10-05T05:13:34.573Z,56.09
2022-10-05T05:16:16.161Z,56.19
2022-10-05T05:19:23.230Z,56.31
2022-10-05T05:22:13.758Z,56.51
2022-10-05T05:25:00.702Z,56.58
2022-10-05T05:27:34.953Z,56.58
2022-10-05T05:30:23.577Z,56.53
2022-10-05T05:33:42.619Z,56.63
2022-10-05T05:36:26.421Z,56.59
2022-10-05T05:39:02.001Z,56.56
2022-10-05T05:41:44.188Z,56.58
2022-10-05T05:44:21.799Z,56.61
2022-10-05T05:47:05.310Z,56.63
2022-10-05T05:50:07.897Z,56.41
2022-10-05T05:52:51.036Z,56.33
2022-10-05T05:55:29.769Z,56.24
2022-10-05T05:58:30.030Z,56.11
2022-10-05T06:01:25.107Z,56.12
2022-10-05T06:04:20.810Z,56.04
2022-10-05T06:06:54.359Z,56.08
2022-10-05T06:09:31.312Z,55.93
2022-10-05T06:12:34.518Z,55.89
2022-10-05T06:15:25.947Z,56.09
2022-10-05T06:17:58.953Z,55.93
2022-10-05T06:20:57.728Z,55.89
2022-10-05T06:23:30.909Z,55.80
2022-10-05T06:26:11.689Z,55.86
2022-10-05T06:28:43.085Z,55.85
2022-10-05T06:31:25.178Z,56.07
2022-10-05T06:34:04.378Z,56.07
2022-10-05T06:36:47.542Z,56.13
2022-10-05T06:40:03.234Z,56.21
2022-10-05T06:43:07.167Z,56.04
2022-10-05T06:46:01.198Z,56.02
2022-10-05T06:49:02.093Z,56.10
2022-10-05T06:52:20.221Z,56.14
2022-10-05T06:54:56.000Z,56.05
2022-10-05T06:57:47.029Z,56.16
2022-10-05T07:00:16.220Z,56.14
2022-10-05T07:02:58.824Z,55.98
2022-10-05T07:05:34.999Z,56.15
2022-10-05T07:08:41.133Z,56.00
2022-10-05T07:11:19.749Z,55.96
2022-10-05T07:14:07.670Z,56.10
2022-10-05T07:16:58.704Z,56.16
2022-10-05T07:19:33.852Z,56.29
2022-10-05T07:22:20.940Z,56.36
2022-10-05T07:25:16.340Z,56.37
2022-10-05T07:27:56.692Z,56.43
2022-10-05T07:30:26.048Z,56.37
2022-10-05T07:33:02.010Z,56.31
2022-10-05T07:36:05.919Z,56.39
2022-10-05T07:39:13.830Z,56.82
2022-10-05T07:41:46.281Z,57.16
2022-10-05T07:44:23.038Z,57.13
2022-10-05T07:47:01.126Z,57.04
2022-10-05T07:49:43.428Z,56.74
2022-10-05T07:52:20.170Z,56.96
2022-10-05T07:55:18.128Z,57.00
2022-10-05T07:58:01.329Z,56.79
2022-10-05T08:00:56.170Z,56.81
2022-10-05T08:03:47.599Z,55.79
2022-10-05T08:06:28.691Z,55.28
2022-10-05T08:09:00.367Z,55.27
2022-10-05T08:11:34.318Z,55.22
2022-10-05T08:14:17.854Z,55.09
2022-10-05T08:16:48.319Z,55.06
2022-10-05T08:19:40.208Z,55.15
2022-10-05T08:22:14.732Z,54.81
2022-10-05T08:24:59.752Z,54.81
2022-10-05T08:27:42.835Z,54.71
2022-10-05T08:30:13.477Z,54.60
2022-10-05T08:32:55.613Z,54.46
2022-10-05T08:35:44.324Z,54.44
2022-10-05T08:38:39.622Z,54.44
2022-10-05T08:41:11.450Z,54.49
2022-10-05T08:44:02.060Z,54.43
2022-10-05T08:46:30.861Z,54.56
2022-10-05T08:49:17.983Z,54.45
2022-10-05T08:52:12.879Z,55.07
2022-10-05T08:54:53.890Z,56.67
2022-10-05T08:57:54.759Z,56.47
2022-10-05T09:00:24.203Z,56.52
2022-10-05T09:03:13.130Z,56.52
2022-10-05T09:06:00.451Z,56.53
2022-10-05T09:08:56.970Z,55.91
2022-10-05T09:11:35.549Z,56.01
2022-10-05T09:14:29.449Z,55.86
2022-10-05T09:17:10.610Z,55.87
2022-10-05T09:20:33.513Z,55.81
2022-10-05T09:23:40.363Z,56.02
2022-10-05T09:26:23.489Z,55.81
2022-10-05T09:28:52.351Z,55.87
2022-10-05T09:31:49.137Z,55.68
2022-10-05T09:34:36.221Z,55.50
2022-10-05T09:37:23.489Z,55.74
2022-10-05T09:40:13.978Z,55.72
2022-10-05T09:42:45.983Z,55.77
2022-10-05T09:45:27.004Z,55.78
2022-10-05T09:48:14.056Z,55.87
2022-10-05T09:51:02.055Z,56.27
2022-10-05T09:53:35.656Z,56.42
2022-10-05T09:56:40.684Z,56.51
2022-10-05T09:59:30.145Z,56.04
2022-10-05T10:02:14.338Z,56.09
2022-10-05T10:05:11.632Z,56.06
2022-10-05T10:08:22.643Z,55.76
2022-10-05T10:11:02.088Z,55.77
2022-10-05T10:14:16.234Z,55.55
2022-10-05T10:17:07.254Z,55.29
2022-10-05T10:20:04.097Z,55.29
2022-10-05T10:23:05.033Z,55.15
2022-10-05T10:25:51.174Z,55.08
2022-10-05T10:28:34.889Z,55.02
2022-10-05T10:31:34.014Z,54.82
2022-10-05T10:34:27.934Z,55.05
2022-10-05T10:37:17.345Z,55.28
2022-10-05T10:40:26.374Z,55.26
2022-10-05T10:43:24.704Z,55.28
2022-10-05T10:46:41.074Z,55.33
2022-10-05T10:49:37.247Z,55.34
2022-10-05T10:52:32.173Z,55.40
2022-10-05T10:55:32.393Z,55.22
2022-10-05T10:58:10.214Z,55.31
2022-10-05T11:01:07.453Z,55.24
2022-10-05T11:03:56.406Z,55.16
2022-10-05T11:07:07.209Z,55.10
2022-10-05T11:10:11.506Z,55.17
2022-10-05T11:12:53.023Z,55.16
2022-10-05T11:15:49.001Z,55.14
2022-10-05T11:18:53.547Z,55.26
2022-10-05T11:21:37.064Z,55.63
2022-10-05T11:24:11.826Z,55.45
2022-10-05T11:27:10.617Z,55.42
2022-10-05T11:29:45.714Z,55.36
2022-10-05T11:32:36.654Z,55.21
2022-10-05T11:35:24.993Z,55.31
2022-10-05T11:38:18.611Z,55.17
2022-10-05T11:41:19.695Z,55.24
2022-10-05T11:44:17.302Z,55.33
2022-10-05T11:47:05.051Z,55.34
2022-10-05T11:49:41.800Z,55.33
2022-10-05T11:52:27.319Z,55.39
2022-10-05T11:55:23.921Z,55.45
2022-10-05T11:57:56.847Z,55.51
2022-10-05T12:00:47.080Z,55.43
2022-10-05T12:03:45.394Z,55.70
2022-10-05T12:06:34.437Z,55.57
2022-10-05T12:09:28.170Z,55.77
2022-10-05T12:12:04.061Z,55.77
2022-10-05T12:14:49.371Z,55.77
2022-10-05T12:17:25.411Z,55.75
2022-10-05T12:20:02.747Z,55.80
2022-10-05T12:22:41.341Z,55.71
2022-10-05T12:25:48.561Z,55.82
2022-10-05T12:28:21.671Z,55.77
2022-10-05T12:31:20.607Z,55.80
2022-10-05T12:34:17.690Z,55.80
2022-10-05T12:37:05.373Z,55.80
2022-10-05T12:39:47.635Z,55.72
2022-10-05T12:42:46.260Z,55.73
2022-10-05T12:45:39.983Z,55.64
2022-10-05T12:48:22.484Z,55.40
2022-10-05T12:50:55.751Z,55.56
2022-10-05T12:53:40.562Z,55.57
2022-10-05T12:56:35.995Z,55.57
2022-10-05T12:59:20.871Z,55.54
2022-10-05T13:02:39.596Z,55.41
2022-10-05T13:05:11.711Z,55.83
2022-10-05T13:07:43.452Z,55.42
2022-10-05T13:10:35.841Z,55.34
2022-10-05T13:13:20.844Z,55.26
2022-10-05T13:16:17.261Z,55.04
2022-10-05T13:19:19.588Z,55.55
2022-10-05T13:22:05.742Z,55.42
2022-10-05T13:24:55.420Z,55.34
2022-10-05T13:27:29.360Z,55.35
2022-10-05T13:30:00.099Z,55.30
2022-10-05T13:32:37.282Z,55.42
2022-10-05T13:35:30.311Z,55.21
2022-10-05T13:38:17.342Z,55.35
2022-10-05T13:41:04.401Z,55.43
2022-10-05T13:43:40.333Z,55.40
2022-10-05T13:46:30.439Z,55.60
2022-10-05T13:49:35.166Z,55.53
2022-10-05T13:52:18.912Z,55.47
2022-10-05T13:54:59.341Z,55.59
2022-10-05T13:57:45.842Z,55.61
2022-10-05T14:00:24.156Z,55.58
2022-10-05T14:02:59.339Z,55.63
2022-10-05T14:05:29.982Z,55.53
2022-10-05T14:08:05.161Z,55.60
2022-10-05T14:10:36.795Z,55.61
2022-10-05T14:13:23.921Z,55.62
2022-10-05T14:16:18.679Z,55.60
2022-10-05T14:19:05.967Z,55.52
2022-10-05T14:22:03.100Z,55.41
2022-10-05T14:24:50.219Z,55.38
2022-10-05T14:27:21.451Z,55.32
2022-10-05T14:30:02.490Z,55.37
2022-10-05T14:32:59.582Z,55.27
2022-10-05T14:35:51.046Z,55.46
2022-10-05T14:38:32.316Z,55.31
2022-10-05T14:41:06.175Z,55.44
2022-10-05T14:43:35.726Z,55.35
2022-10-05T14:46:25.346Z,55.35
2022-10-05T14:49:26.087Z,55.38
2022-10-05T14:51:55.733Z,55.42
2022-10-05T14:54:35.746Z,55.20
2022-10-05T14:57:23.536Z,55.30
2022-10-05T14:59:55.776Z,55.32
2022-10-05T15:02:40.478Z,55.29
2022-10-05T15:05:21.190Z,55.22
2022-10-05T15:07:52.052Z,55.28
2022-10-05T15:10:39.445Z,55.32
2022-10-05T15:13:19.935Z,55.35
2022-10-05T15:15:54.185Z,55.48
2022-10-05T15:18:54.076Z,55.43
2022-10-05T15:21:54.741Z,55.48
2022-10-05T15:24:26.948Z,55.26
2022-10-05T15:26:57.566Z,55.52
2022-10-05T15:29:38.426Z,55.53
2022-10-05T15:32:15.065Z,55.59
2022-10-05T15:35:00.264Z,55.69
2022-10-05T15:37:35.941Z,55.74
2022-10-05T15:40:27.255Z,55.71
2022-10-05T15:42:58.735Z,55.47
2022-10-05T15:45:38.050Z,55.24
2022-10-05T15:48:20.522Z,55.37
2022-10-05T15:51:07.561Z,55.39
2022-10-05T15:54:15.300Z,55.52
2022-10-05T15:56:48.340Z,55.56
2022-10-05T15:59:21.555Z,55.67
2022-10-05T16:01:53.340Z,55.75
2022-10-05T16:04:55.021Z,55.74
2022-10-05T16:07:45.584Z,55.86
2022-10-05T16:10:24.434Z,55.93
2022-10-05T16:12:59.169Z,55.95
2022-10-05T16:15:53.544Z,55.95
2022-10-05T16:18:47.578Z,55.89
2022-10-05T16:21:53.285Z,56.06
2022-10-05T16:24:50.060Z,56.03
2022-10-05T16:27:40.724Z,56.09
2022-10-05T16:30:14.161Z,56.33
2022-10-05T16:33:11.126Z,56.18
2022-10-05T16:36:05.055Z,56.09
2022-10-05T16:38:52.245Z,56.13
2022-10-05T16:41:29.208Z,56.20
2022-10-05T16:44:27.947Z,56.24
2022-10-05T16:47:00.223Z,56.15
2022-10-05T16:49:57.705Z,56.51
2022-10-05T16:52:26.876Z,56.46
2022-10-05T16:55:03.445Z,56.23
2022-10-05T16:57:48.860Z,56.61
2022-10-05T17:00:24.365Z,56.68
2022-10-05T17:03:05.140Z,56.52
2022-10-05T17:06:02.527Z,56.56
2022-10-05T17:08:49.713Z,56.40
2022-10-05T17:11:33.795Z,56.64
2022-10-05T17:14:27.367Z,56.84
2022-10-05T17:17:09.205Z,56.79
2022-10-05T17:20:12.332Z,56.99
2022-10-05T17:22:51.370Z,56.83
2022-10-05T17:25:34.487Z,56.97
2022-10-05T17:28:23.892Z,56.86
2022-10-05T17:30:59.030Z,56.97
2022-10-05T17:33:32.087Z,57.05
2022-10-05T17:36:05.179Z,57.05
2022-10-05T17:38:34.424Z,57.11
2022-10-05T17:41:23.185Z,57.13
2022-10-05T17:44:16.477Z,57.11
2022-10-05T17:47:01.820Z,57.30
2022-10-05T17:50:16.267Z,57.40
2022-10-05T17:53:04.005Z,57.33
2022-10-05T17:55:33.031Z,57.36
2022-10-05T17:58:22.946Z,57.47
2022-10-05T18:00:56.855Z,57.49
2022-10-05T18:03:45.395Z,57.50
2022-10-05T18:06:26.599Z,57.63
2022-10-05T18:09:23.215Z,57.52
2022-10-05T18:12:16.825Z,57.51
2022-10-05T18:15:01.397Z,57.26
2022-10-05T18:17:36.617Z,57.12
2022-10-05T18:20:15.025Z,57.12
2022-10-05T18:22:46.778Z,57.12
2022-10-05T18:25:30.485Z,56.96
2022-10-05T18:28:18.081Z,56.96
2022-10-05T18:30:59.590Z,56.93
2022-10-05T18:34:02.776Z,57.04
2022-10-05T18:36:39.407Z,56.84
2022-10-05T18:40:06.021Z,56.96
2022-10-05T18:42:42.851Z,57.33
2022-10-05T18:45:25.110Z,57.30
2022-10-05T18:48:12.287Z,57.62
2022-10-05T18:50:53.070Z,58.03
2022-10-05T18:53:33.386Z,57.84
2022-10-05T18:56:13.125Z,58.04
2022-10-05T18:58:54.515Z,58.08
2022-10-05T19:01:42.580Z,58.17
2022-10-05T19:04:30.122Z,58.06
2022-10-05T19:07:18.081Z,58.15
2022-10-05T19:10:09.835Z,58.11
2022-10-05T19:12:41.896Z,58.04
2022-10-05T19:15:19.688Z,58.04
2022-10-05T19:18:18.978Z,58.82
2022-10-05T19:20:55.264Z,59.29
2022-10-05T19:23:45.445Z,59.53
2022-10-05T19:26:25.496Z,60.26
2022-10-05T19:29:18.421Z,60.50
2022-10-05T19:32:19.144Z,60.90
2022-10-05T19:35:03.255Z,61.29
2022-10-05T19:37:38.207Z,61.38
2022-10-05T19:40:24.541Z,61.24
2022-10-05T19:43:31.057Z,60.97
2022-10-05T19:46:00.432Z,60.73
2022-10-05T19:48:52.162Z,60.04
2022-10-05T19:51:32.126Z,59.66
2022-10-05T19:54:14.481Z,59.30
2022-10-05T19:56:51.534Z,58.97
2022-10-05T19:59:24.944Z,58.83
2022-10-05T20:01:56.000Z,58.63
2022-10-05T20:04:41.836Z,58.58
2022-10-05T20:07:22.439Z,58.44
2022-10-05T20:10:36.670Z,58.23
2022-10-05T20:13:08.915Z,58.24
2022-10-05T20:15:56.253Z,58.17
2022-10-05T20:19:02.286Z,58.09
2022-10-05T20:21:39.898Z,57.95
2022-10-05T20:24:19.945Z,58.10
2022-10-05T20:27:02.907Z,57.88
2022-10-05T20:29:37.092Z,57.89
2022-10-05T20:32:26.428Z,57.97
2022-10-05T20:34:59.065Z,57.83
2022-10-05T20:37:28.379Z,57.96
2022-10-05T20:39:57.506Z,57.68
2022-10-05T20:42:26.939Z,57.64
2022-10-05T20:44:57.515Z,57.65
2022-10-05T20:47:26.678Z,57.69
2022-10-05T20:49:55.895Z,57.70
2022-10-05T20:52:24.766Z,57.66
2022-10-05T20:54:57.011Z,57.57
2022-10-05T20:57:27.180Z,57.57
2022-10-05T20:59:55.945Z,57.73
2022-10-05T21:02:24.866Z,57.58
2022-10-05T21:04:53.971Z,57.62
2022-10-05T21:07:23.879Z,57.51
2022-10-05T21:09:52.720Z,57.58
2022-10-05T21:12:21.795Z,57.52
2022-10-05T21:14:52.861Z,57.46
2022-10-05T21:17:22.045Z,57.30
2022-10-05T21:19:51.057Z,57.28
2022-10-05T21:22:19.800Z,57.32
2022-10-05T21:24:48.735Z,57.36
2022-10-05T21:27:17.925Z,57.25
2022-10-05T21:29:46.716Z,57.18
2022-10-05T21:32:15.575Z,57.23
2022-10-05T21:34:44.747Z,57.21
2022-10-05T21:37:15.895Z,57.24
2022-10-05T21:39:46.291Z,57.20
2022-10-05T21:42:15.165Z,57.14
2022-10-05T21:44:44.000Z,57.27
2022-10-05T21:47:13.083Z,57.11
2022-10-05T21:49:42.096Z,56.95
2022-10-05T21:52:11.135Z,56.93
2022-10-05T21:54:40.745Z,57.17
2022-10-05T21:57:11.710Z,57.01
2022-10-05T21:59:41.115Z,57.07
2022-10-05T22:02:09.798Z,56.93
2022-10-05T22:04:38.377Z,56.88
2022-10-05T22:07:20.457Z,56.97
2022-10-05T22:09:52.287Z,56.98
2022-10-05T22:12:21.277Z,56.95
2022-10-05T22:14:49.827Z,56.91
2022-10-05T22:17:25.354Z,56.91
2022-10-05T22:19:55.497Z,56.93
2022-10-05T22:22:24.127Z,56.75
2022-10-05T22:24:53.590Z,56.79
2022-10-05T22:27:23.486Z,56.76
2022-10-05T22:29:52.276Z,56.76
2022-10-05T22:32:21.187Z,56.69
2022-10-05T22:34:50.087Z,56.67
2022-10-05T22:37:18.717Z,56.64
2022-10-05T22:39:48.419Z,56.67
2022-10-05T22:42:17.137Z,56.53
2022-10-05T22:44:45.859Z,56.48
2022-10-05T22:47:14.492Z,56.50
2022-10-05T22:49:43.247Z,56.43
2022-10-05T22:52:11.857Z,56.47
2022-10-05T22:54:40.429Z,56.45
2022-10-05T22:57:09.297Z,56.41
2022-10-05T22:59:37.953Z,56.44
2022-10-05T23:02:06.586Z,56.20
2022-10-05T23:04:35.905Z,56.44
2022-10-05T23:07:04.646Z,56.29
2022-10-05T23:09:33.346Z,56.45
2022-10-05T23:12:02.198Z,56.48
2022-10-05T23:14:31.225Z,56.55
2022-10-05T23:16:59.991Z,56.57
2022-10-05T23:19:28.969Z,56.52
2022-10-05T23:21:57.672Z,56.39
2022-10-05T23:24:26.321Z,56.40
2022-10-05T23:26:55.282Z,56.46
2022-10-05T23:29:24.135Z,56.43
2022-10-05T23:31:53.174Z,56.44
2022-10-05T23:34:22.081Z,56.38
2022-10-05T23:36:50.793Z,56.53
2022-10-05T23:39:19.381Z,56.34
2022-10-05T23:41:48.376Z,56.34
2022-10-05T23:44:16.885Z,56.38
2022-10-05T23:46:45.786Z,56.36
2022-10-05T23:49:15.153Z,56.33
2022-10-05T23:51:45.078Z,56.37
2022-10-05T23:54:13.825Z,56.38
2022-10-05T23:56:43.366Z,56.45
2022-10-05T23:59:11.977Z,56.38
